Pagina principale
METAR-TAF:

METAR-TAF

Aeroporti :

Aeroporto di Padova

Padova, Italia

latitudine: 45-23-45N, longitudine: 11-50-53E, altezza: 13 m

Osservazione

Il bollettino è stato emesso 14 ore e 21 minuti fa, alle 11:50 UTC
Vento 2 kt da direzioni variabili
Temperature 29°C
Umidità 66%
Pressione 1019 hPa
Visibilità: 9000 m
Poco nuvoloso ad un'altezza di 1000 ft

METAR: LIPU 201150Z VRB02KT 9000 FEW010 29/22 Q1019

Ora: 04:11 (02:11 UTC)


TAF: mancante

Osservazioni e previsioni meteorologiche di più di 4000 aeroporti (messaggi METAR e TAF).

Le stazioni disponibili sono rappresentate dai dischi gialli e rossi sulla carta.

Puntare il mouse per vedere il nome della stazione.

Clicca sopra per visualizzare le osservazioni e previsioni meteorologiche.

Per cambiare la mappa : fare clic sui pulsanti verdi con una croce nera per ingrandire, il pulsante verde con un trattino per diminuire, o sulla freccia verde per le mappe adiacenti.


METAR-TAF: